Terminal Aerodrome Forecast
Issued by NWS Charleston, WV

Current Version | Previous Version | Graphics & Text | Print | Product List | Glossary Off
Versions: 1 2 3 4 5 6 7 8 9 10 11 12 13 14 15 16 17 18 19 20 21 22 23 24 25 26 27 28

000
FTUS41 KRLX 171829 RRA
TAFBKW
TAF
KBKW 171829Z 1718/1818 VRB04KT 2SM -RA BR SCT006 BKN011 OVC025
     FM180200 24006KT 5SM -RAPL OVC010
     FM180400 28007KT 6SM -PL OVC008
     FM180500 29008KT P6SM BKN008=

USA.gov is the U.S. government's official web portal to all federal, state and local government web resources and services.